createdAt,value
2023-03-12T00:00:25.242Z,90.55
2023-03-12T00:01:24.276Z,90.76
2023-03-12T00:02:24.326Z,90.97
2023-03-12T00:03:24.373Z,90.97
2023-03-12T00:04:24.231Z,90.87
2023-03-12T00:05:24.239Z,90.76
2023-03-12T00:06:24.222Z,90.45
2023-03-12T00:07:24.208Z,90.34
2023-03-12T00:08:24.215Z,90.13
2023-03-12T00:09:24.141Z,90.03
2023-03-12T00:10:24.199Z,89.92
2023-03-12T00:11:24.140Z,89.72
2023-03-12T00:12:24.160Z,89.57
2023-03-12T00:13:24.228Z,89.57
2023-03-12T00:14:24.112Z,89.36
2023-03-12T00:15:24.062Z,89.36
2023-03-12T00:16:24.169Z,89.25
2023-03-12T00:17:24.080Z,89.15
2023-03-12T00:18:24.045Z,88.94
2023-03-12T00:19:24.151Z,88.84
2023-03-12T00:20:24.060Z,88.73
2023-03-12T00:21:24.020Z,88.73
2023-03-12T00:22:24.020Z,88.84
2023-03-12T00:23:23.994Z,89.04
2023-03-12T00:24:23.987Z,89.15
2023-03-12T00:25:24.035Z,89.04
2023-03-12T00:26:23.943Z,89.04
2023-03-12T00:27:23.911Z,89.15
2023-03-12T00:28:23.956Z,89.25
2023-03-12T00:29:23.874Z,89.36
2023-03-12T00:30:23.948Z,89.25
2023-03-12T00:31:23.979Z,89.15
2023-03-12T00:32:23.937Z,89.04
2023-03-12T00:33:23.823Z,89.15
2023-03-12T00:34:23.890Z,89.04
2023-03-12T00:35:23.844Z,89.04
2023-03-12T00:36:23.836Z,89.04
2023-03-12T00:37:23.941Z,89.09
2023-03-12T00:38:23.800Z,89.19
2023-03-12T00:39:23.753Z,89.04
2023-03-12T00:40:23.798Z,89.09
2023-03-12T00:41:23.728Z,89.09
2023-03-12T00:42:23.735Z,89.09
2023-03-12T00:43:23.807Z,89.04
2023-03-12T00:44:23.741Z,88.94
2023-03-12T00:45:23.669Z,88.94
2023-03-12T00:46:23.741Z,88.84
2023-03-12T00:47:23.674Z,88.98
2023-03-12T00:48:23.664Z,89.19
2023-03-12T00:49:23.772Z,88.98
2023-03-12T00:50:23.638Z,89.23
2023-03-12T00:51:23.649Z,89.54
2023-03-12T00:52:23.596Z,89.86
2023-03-12T00:53:23.636Z,90.22
2023-03-12T00:54:23.564Z,90.53
2023-03-12T00:55:23.700Z,90.84
2023-03-12T00:56:23.575Z,91.37
2023-03-12T00:57:23.552Z,91.68
2023-03-12T00:58:23.533Z,91.68
2023-03-12T00:59:23.543Z,91.68
2023-03-12T01:00:23.487Z,91.79
2023-03-12T01:01:23.641Z,91.53
2023-03-12T01:02:23.459Z,91.22
2023-03-12T01:03:23.470Z,91.01
2023-03-12T01:04:23.547Z,90.91
2023-03-12T01:05:23.465Z,90.80
2023-03-12T01:06:23.424Z,90.49
2023-03-12T01:07:23.440Z,90.17
2023-03-12T01:08:23.409Z,90.32
2023-03-12T01:09:23.396Z,90.74
2023-03-12T01:10:23.389Z,91.27
2023-03-12T01:11:23.389Z,91.72
2023-03-12T01:12:23.339Z,92.14
2023-03-12T01:13:23.419Z,92.35
2023-03-12T01:14:23.340Z,92.46
2023-03-12T01:15:23.314Z,92.61
2023-03-12T01:16:23.424Z,92.82
2023-03-12T01:17:23.315Z,93.02
2023-03-12T01:18:23.284Z,93.34
2023-03-12T01:19:23.412Z,93.66
2023-03-12T01:20:23.296Z,93.91
2023-03-12T01:21:23.252Z,94.12
2023-03-12T01:22:23.225Z,94.23
2023-03-12T01:23:23.257Z,94.33
2023-03-12T01:24:23.201Z,94.54
2023-03-12T01:25:23.276Z,94.65
2023-03-12T01:26:23.169Z,94.75
2023-03-12T01:27:23.181Z,94.96
2023-03-12T01:28:23.165Z,95.06
2023-03-12T01:29:23.172Z,95.17
2023-03-12T01:30:23.155Z,95.06
2023-03-12T01:31:23.245Z,95.10
2023-03-12T01:32:23.173Z,95.00
2023-03-12T01:33:23.176Z,95.00
2023-03-12T01:34:23.064Z,95.10
2023-03-12T01:35:23.128Z,95.21
2023-03-12T01:36:23.269Z,95.32
2023-03-12T01:37:23.178Z,95.42
2023-03-12T01:38:22.998Z,95.42
2023-03-12T01:39:23.029Z,95.42
2023-03-12T01:40:23.027Z,95.53
2023-03-12T01:41:23.020Z,95.64
2023-03-12T01:42:22.999Z,95.64
2023-03-12T01:43:23.133Z,95.64
2023-03-12T01:44:22.941Z,95.59
2023-03-12T01:45:22.964Z,95.38
2023-03-12T01:46:22.925Z,95.28
2023-03-12T01:47:22.931Z,95.17
2023-03-12T01:48:22.905Z,95.06
2023-03-12T01:49:22.934Z,94.96
2023-03-12T01:50:22.878Z,94.96
2023-03-12T01:51:22.975Z,94.85
2023-03-12T01:52:22.807Z,94.85
2023-03-12T01:53:22.866Z,94.96
2023-03-12T01:54:22.817Z,95.10
2023-03-12T01:55:22.832Z,95.21
2023-03-12T01:56:22.798Z,95.21
2023-03-12T01:57:22.783Z,95.28
2023-03-12T01:58:22.792Z,95.38
2023-03-12T01:59:22.780Z,95.38
2023-03-12T02:00:22.718Z,95.28
2023-03-12T02:01:22.873Z,94.96
2023-03-12T02:02:22.676Z,94.96
2023-03-12T02:03:22.723Z,94.85
2023-03-12T02:04:22.720Z,94.71
2023-03-12T02:05:22.695Z,94.60
2023-03-12T02:06:22.667Z,94.49
2023-03-12T02:07:22.756Z,94.18
2023-03-12T02:08:22.604Z,94.08
2023-03-12T02:09:22.651Z,93.93
2023-03-12T02:10:22.624Z,93.72
2023-03-12T02:11:22.986Z,93.62
2023-03-12T02:12:22.616Z,93.30
2023-03-12T02:13:22.746Z,93.09
2023-03-12T02:14:22.550Z,92.77
2023-03-12T02:15:22.554Z,92.82
2023-03-12T02:16:22.566Z,92.71
2023-03-12T02:17:22.528Z,92.82
2023-03-12T02:18:22.509Z,92.82
2023-03-12T02:19:22.638Z,92.82
2023-03-12T02:20:22.497Z,93.07
2023-03-12T02:21:22.504Z,93.28
2023-03-12T02:22:22.428Z,93.38
2023-03-12T02:23:22.441Z,93.49
2023-03-12T02:24:22.434Z,93.70
2023-03-12T02:25:22.506Z,93.85
2023-03-12T02:26:22.409Z,93.74
2023-03-12T02:27:22.410Z,93.95
2023-03-12T02:28:22.378Z,94.31
2023-03-12T02:29:22.360Z,94.62
2023-03-12T02:30:22.335Z,94.84
2023-03-12T02:31:22.449Z,94.94
2023-03-12T02:32:22.334Z,95.04
2023-03-12T02:33:22.364Z,95.20
2023-03-12T02:34:22.288Z,95.30
2023-03-12T02:35:22.304Z,95.40
2023-03-12T02:36:22.265Z,95.51
2023-03-12T02:37:22.300Z,95.72
2023-03-12T02:38:22.250Z,96.08
2023-03-12T02:39:22.268Z,96.50
2023-03-12T02:40:22.204Z,96.81
2023-03-12T02:41:22.235Z,97.03
2023-03-12T02:42:22.188Z,97.34
2023-03-12T02:43:22.239Z,97.66
2023-03-12T02:44:22.141Z,97.87
2023-03-12T02:45:22.208Z,97.87
2023-03-12T02:46:22.209Z,97.87
2023-03-12T02:47:22.148Z,97.87
2023-03-12T02:48:22.122Z,97.87
2023-03-12T02:49:22.158Z,97.97
2023-03-12T02:50:22.085Z,97.97
2023-03-12T02:51:22.103Z,97.87
2023-03-12T02:52:22.078Z,97.76
2023-03-12T02:53:22.176Z,97.87
2023-03-12T02:54:22.035Z,97.87
2023-03-12T02:55:22.065Z,97.97
2023-03-12T02:56:22.031Z,97.97
2023-03-12T02:57:22.015Z,97.97
2023-03-12T02:58:21.977Z,98.08
2023-03-12T02:59:22.025Z,98.29
2023-03-12T03:00:21.948Z,98.39
2023-03-12T03:01:22.146Z,98.46
2023-03-12T03:02:21.947Z,98.56
2023-03-12T03:03:21.930Z,98.56
2023-03-12T03:04:21.948Z,98.30
2023-03-12T03:05:22.852Z,97.84
2023-03-12T03:06:21.897Z,97.06
2023-03-12T03:07:21.937Z,96.12
2023-03-12T03:08:21.841Z,95.48
2023-03-12T03:09:21.882Z,94.85
2023-03-12T03:10:21.803Z,94.33
2023-03-12T03:11:21.829Z,93.91
2023-03-12T03:12:21.835Z,93.70
2023-03-12T03:13:21.871Z,93.59
2023-03-12T03:14:21.771Z,93.74
2023-03-12T03:15:21.781Z,94.06
2023-03-12T03:16:21.770Z,94.27
2023-03-12T03:17:21.752Z,94.42
2023-03-12T03:18:21.749Z,94.42
2023-03-12T03:19:21.791Z,94.52
2023-03-12T03:20:21.698Z,94.46
2023-03-12T03:21:21.787Z,94.35
2023-03-12T03:22:21.661Z,94.29
2023-03-12T03:23:21.684Z,94.50
2023-03-12T03:24:21.661Z,94.71
2023-03-12T03:25:21.683Z,95.03
2023-03-12T03:26:21.653Z,95.28
2023-03-12T03:27:21.643Z,95.60
2023-03-12T03:28:21.599Z,96.02
2023-03-12T03:29:21.605Z,96.23
2023-03-12T03:30:21.591Z,96.50
2023-03-12T03:31:21.745Z,96.81
2023-03-12T03:32:21.557Z,97.24
2023-03-12T03:33:21.565Z,97.45
2023-03-12T03:34:21.578Z,97.51
2023-03-12T03:35:21.528Z,97.41
2023-03-12T03:36:21.531Z,97.15
2023-03-12T03:37:21.527Z,97.05
2023-03-12T03:38:21.493Z,96.83
2023-03-12T03:39:21.492Z,96.47
2023-03-12T03:40:21.469Z,96.16
2023-03-12T03:41:21.473Z,95.95
2023-03-12T03:42:21.404Z,95.84
2023-03-12T03:43:21.546Z,95.64
2023-03-12T03:44:21.413Z,95.53
2023-03-12T03:45:21.432Z,95.42
2023-03-12T03:46:22.147Z,95.32
2023-03-12T03:47:21.379Z,95.42
2023-03-12T03:48:21.350Z,95.38
2023-03-12T03:49:21.449Z,95.48
2023-03-12T03:50:21.315Z,95.38
2023-03-12T03:51:21.351Z,95.38
2023-03-12T03:52:21.277Z,95.28
2023-03-12T03:53:21.336Z,95.28
2023-03-12T03:54:21.256Z,95.13
2023-03-12T03:55:21.290Z,95.02
2023-03-12T03:56:21.277Z,94.92
2023-03-12T03:57:21.249Z,94.71
2023-03-12T03:58:21.228Z,94.60
2023-03-12T03:59:21.242Z,94.39
2023-03-12T04:00:21.180Z,94.24
2023-03-12T04:01:21.249Z,94.14
2023-03-12T04:02:21.146Z,93.93
2023-03-12T04:03:21.208Z,93.93
2023-03-12T04:04:21.156Z,93.93
2023-03-12T04:05:21.164Z,94.04
2023-03-12T04:06:21.125Z,94.04
2023-03-12T04:07:21.281Z,94.14
2023-03-12T04:08:21.073Z,94.18
2023-03-12T04:09:21.126Z,94.29
2023-03-12T04:10:21.040Z,94.39
2023-03-12T04:11:21.182Z,94.39
2023-03-12T04:12:21.046Z,94.60
2023-03-12T04:13:21.162Z,94.60
2023-03-12T04:14:21.024Z,94.71
2023-03-12T04:15:21.043Z,94.81
2023-03-12T04:16:21.016Z,94.96
2023-03-12T04:17:21.049Z,95.06
2023-03-12T04:18:21.006Z,95.06
2023-03-12T04:19:21.095Z,95.17
2023-03-12T04:20:20.923Z,95.28
2023-03-12T04:21:20.959Z,95.28
2023-03-12T04:22:20.900Z,95.28
2023-03-12T04:23:20.911Z,95.17
2023-03-12T04:24:21.849Z,94.96
2023-03-12T04:25:20.913Z,94.96
2023-03-12T04:26:20.859Z,95.06
2023-03-12T04:27:20.878Z,95.06
2023-03-12T04:28:20.831Z,95.06
2023-03-12T04:29:20.868Z,95.06
2023-03-12T04:30:20.798Z,95.28
2023-03-12T04:31:20.902Z,95.59
2023-03-12T04:32:20.828Z,95.80
2023-03-12T04:33:20.809Z,96.01
2023-03-12T04:34:20.735Z,96.22
2023-03-12T04:35:20.744Z,96.43
2023-03-12T04:36:20.742Z,96.64
2023-03-12T04:37:20.767Z,96.75
2023-03-12T04:38:20.712Z,96.85
2023-03-12T04:39:20.724Z,96.95
2023-03-12T04:40:20.659Z,96.95
2023-03-12T04:41:20.704Z,96.95
2023-03-12T04:42:20.654Z,97.06
2023-03-12T04:43:20.695Z,96.91
2023-03-12T04:44:20.633Z,96.81
2023-03-12T04:45:20.641Z,96.81
2023-03-12T04:46:20.648Z,96.70
2023-03-12T04:47:20.636Z,96.49
2023-03-12T04:48:20.564Z,96.39
2023-03-12T04:49:20.698Z,96.28
2023-03-12T04:50:20.567Z,96.07
2023-03-12T04:51:20.576Z,95.97
2023-03-12T04:52:20.512Z,95.82
2023-03-12T04:53:20.571Z,95.82
2023-03-12T04:54:20.491Z,95.82
2023-03-12T04:55:20.522Z,95.72
2023-03-12T04:56:20.489Z,95.72
2023-03-12T04:57:20.496Z,95.82
2023-03-12T04:58:20.457Z,95.92
2023-03-12T04:59:20.470Z,95.92
2023-03-12T05:00:20.395Z,95.82
2023-03-12T05:01:20.525Z,95.82
2023-03-12T05:02:20.385Z,95.82
2023-03-12T05:03:20.396Z,95.82
2023-03-12T05:04:20.385Z,95.82
2023-03-12T05:05:20.371Z,95.72
2023-03-12T05:06:20.355Z,95.82
2023-03-12T05:07:20.347Z,95.72
2023-03-12T05:08:20.358Z,95.72
2023-03-12T05:09:20.378Z,95.82
2023-03-12T05:10:20.325Z,95.82
2023-03-12T05:11:20.295Z,95.82
2023-03-12T05:12:20.283Z,95.92
2023-03-12T05:13:20.384Z,95.92
2023-03-12T05:14:20.287Z,95.92
2023-03-12T05:15:20.231Z,96.03
2023-03-12T05:16:20.291Z,96.13
2023-03-12T05:17:20.187Z,96.24
2023-03-12T05:18:20.233Z,96.24
2023-03-12T05:19:20.212Z,96.34
2023-03-12T05:20:20.179Z,96.24
2023-03-12T05:21:20.128Z,96.24
2023-03-12T05:22:20.176Z,96.24
2023-03-12T05:23:20.133Z,96.13
2023-03-12T05:24:20.131Z,96.13
2023-03-12T05:25:20.143Z,96.03
2023-03-12T05:26:20.100Z,95.92
2023-03-12T05:27:20.060Z,95.82
2023-03-12T05:28:20.104Z,95.72
2023-03-12T05:29:20.037Z,95.72
2023-03-12T05:30:20.090Z,95.61
2023-03-12T05:31:20.172Z,95.50
2023-03-12T05:32:20.052Z,95.40
2023-03-12T05:33:20.015Z,95.40
2023-03-12T05:34:19.990Z,95.29
2023-03-12T05:35:19.971Z,95.19
2023-03-12T05:36:20.021Z,95.08
2023-03-12T05:37:19.998Z,94.98
2023-03-12T05:38:19.940Z,94.98
2023-03-12T05:39:19.897Z,94.98
2023-03-12T05:40:19.949Z,94.98
2023-03-12T05:41:19.903Z,94.98
2023-03-12T05:42:19.919Z,95.08
2023-03-12T05:43:20.032Z,95.08
2023-03-12T05:44:19.859Z,95.08
2023-03-12T05:45:19.847Z,95.19
2023-03-12T05:46:19.832Z,95.19
2023-03-12T05:47:19.801Z,95.19
2023-03-12T05:48:19.840Z,95.19
2023-03-12T05:49:19.813Z,95.19
2023-03-12T05:50:19.812Z,95.19
2023-03-12T05:51:19.778Z,95.19
2023-03-12T05:52:19.765Z,95.19
2023-03-12T05:53:19.739Z,95.19
2023-03-12T05:54:19.789Z,95.29
2023-03-12T05:55:19.753Z,95.40
2023-03-12T05:56:19.706Z,95.50
2023-03-12T05:57:19.694Z,95.61
2023-03-12T05:58:19.671Z,95.72
2023-03-12T05:59:19.636Z,95.82
2023-03-12T06:00:19.677Z,95.92
2023-03-12T06:01:19.742Z,96.03
2023-03-12T06:02:19.677Z,96.09
2023-03-12T06:03:19.643Z,96.09
2023-03-12T06:04:19.590Z,96.09
2023-03-12T06:05:19.582Z,96.09
2023-03-12T06:06:19.570Z,96.09
2023-03-12T06:07:19.569Z,96.09
2023-03-12T06:08:19.577Z,96.09
2023-03-12T06:09:19.506Z,95.94
2023-03-12T06:10:19.537Z,95.84
2023-03-12T06:11:19.512Z,95.62
2023-03-12T06:12:19.484Z,95.42
2023-03-12T06:13:19.520Z,95.21
2023-03-12T06:14:19.466Z,94.79
2023-03-12T06:15:19.423Z,94.32
2023-03-12T06:16:19.502Z,94.01
2023-03-12T06:17:19.401Z,94.01
2023-03-12T06:18:19.446Z,93.91
2023-03-12T06:19:19.507Z,93.70
2023-03-12T06:20:19.386Z,93.70
2023-03-12T06:21:19.379Z,93.59
2023-03-12T06:22:19.362Z,93.44
2023-03-12T06:23:21.528Z,93.44
2023-03-12T06:24:19.359Z,93.44
2023-03-12T06:25:19.355Z,93.34
2023-03-12T06:26:19.303Z,93.13
2023-03-12T06:27:19.261Z,93.02
2023-03-12T06:28:19.299Z,92.92
2023-03-12T06:29:19.242Z,92.82
2023-03-12T06:30:19.282Z,92.67
2023-03-12T06:31:19.324Z,92.46
2023-03-12T06:32:19.266Z,92.25
2023-03-12T06:33:19.200Z,92.46
2023-03-12T06:34:19.222Z,92.46
2023-03-12T06:35:19.166Z,92.35
2023-03-12T06:36:19.201Z,92.14
2023-03-12T06:37:19.246Z,92.21
2023-03-12T06:38:19.193Z,92.21
2023-03-12T06:39:19.136Z,92.10
2023-03-12T06:40:19.124Z,92.00
2023-03-12T06:41:19.088Z,91.69
2023-03-12T06:42:19.148Z,91.69
2023-03-12T06:43:19.195Z,92.21
2023-03-12T06:44:19.056Z,92.16
2023-03-12T06:45:19.052Z,91.96
2023-03-12T06:46:19.103Z,92.16
2023-03-12T06:47:19.007Z,91.54
2023-03-12T06:48:19.072Z,91.22
2023-03-12T06:49:18.991Z,90.81
2023-03-12T06:50:19.001Z,90.45
2023-03-12T06:51:18.961Z,90.03
2023-03-12T06:52:18.953Z,90.24
2023-03-12T06:53:18.953Z,90.52
2023-03-12T06:54:18.930Z,90.52
2023-03-12T06:55:18.908Z,90.52
2023-03-12T06:56:18.934Z,90.09
2023-03-12T06:57:18.885Z,90.20
2023-03-12T06:58:19.176Z,90.09
2023-03-12T06:59:18.827Z,89.99
2023-03-12T07:00:18.875Z,89.68
2023-03-12T07:01:18.839Z,89.11
2023-03-12T07:02:18.916Z,89.11
2023-03-12T07:03:18.818Z,88.90
2023-03-12T07:04:18.790Z,88.90
2023-03-12T07:05:18.806Z,89.07
2023-03-12T07:06:18.775Z,88.87
2023-03-12T07:07:19.121Z,89.18
2023-03-12T07:08:18.776Z,89.07
2023-03-12T07:09:18.712Z,88.65
2023-03-12T07:10:18.752Z,88.87
2023-03-12T07:11:18.712Z,88.76
2023-03-12T07:12:18.695Z,88.97
2023-03-12T07:13:18.792Z,88.65
2023-03-12T07:14:18.667Z,88.24
2023-03-12T07:15:18.636Z,88.24
2023-03-12T07:16:18.905Z,87.82
2023-03-12T07:17:18.610Z,87.68
2023-03-12T07:18:18.643Z,87.99
2023-03-12T07:19:18.636Z,87.15
2023-03-12T07:20:18.591Z,87.47
2023-03-12T07:21:18.577Z,87.53
2023-03-12T07:22:18.568Z,87.43
2023-03-12T07:23:18.529Z,86.38
2023-03-12T07:24:18.737Z,86.49
2023-03-12T07:25:19.118Z,86.49
2023-03-12T07:26:18.707Z,85.86
2023-03-12T07:27:18.784Z,86.28
2023-03-12T07:28:18.630Z,86.69
2023-03-12T07:29:18.564Z,86.59
2023-03-12T07:30:18.560Z,86.18
2023-03-12T07:31:18.550Z,86.07
2023-03-12T07:32:18.477Z,86.59
2023-03-12T07:33:18.499Z,85.76
2023-03-12T07:34:18.583Z,85.65
2023-03-12T07:35:18.565Z,85.03
2023-03-12T07:36:18.575Z,85.24
2023-03-12T07:37:18.513Z,84.99
2023-03-12T07:38:18.482Z,84.47
2023-03-12T07:39:18.380Z,85.10
2023-03-12T07:40:18.415Z,84.99
2023-03-12T07:41:18.324Z,84.88
2023-03-12T07:42:18.391Z,85.30
2023-03-12T07:43:20.410Z,85.93
2023-03-12T07:44:18.317Z,85.61
2023-03-12T07:45:18.342Z,85.30
2023-03-12T07:46:18.355Z,85.82
2023-03-12T07:47:24.179Z,85.30
2023-03-12T07:48:19.338Z,85.51
2023-03-12T07:49:18.193Z,85.41
2023-03-12T07:50:18.279Z,85.61
2023-03-12T07:51:18.198Z,85.30
2023-03-12T07:52:18.318Z,85.82
2023-03-12T07:53:18.172Z,86.13
2023-03-12T07:54:18.211Z,85.61
2023-03-12T07:55:18.224Z,85.93
2023-03-12T07:56:18.235Z,85.30
2023-03-12T07:57:18.311Z,85.41
2023-03-12T07:59:48.140Z,86.66
2023-03-12T08:00:29.312Z,86.45
2023-03-12T08:01:29.334Z,86.76
2023-03-12T08:02:29.229Z,86.45
2023-03-12T08:03:29.518Z,85.72
2023-03-12T08:04:29.217Z,86.35
2023-03-12T08:05:29.141Z,86.76
2023-03-12T08:06:29.053Z,86.97
2023-03-12T08:07:29.050Z,86.55
2023-03-12T08:08:29.069Z,86.35
2023-03-12T08:09:28.958Z,86.45
2023-03-12T08:10:29.117Z,86.13
2023-03-12T08:11:28.980Z,86.87
2023-03-12T08:12:29.025Z,86.87
2023-03-12T08:13:28.974Z,86.87
2023-03-12T08:14:28.975Z,86.35
2023-03-12T08:15:28.938Z,85.72
2023-03-12T08:16:28.971Z,85.78
2023-03-12T08:17:29.008Z,86.83
2023-03-12T08:18:28.914Z,85.58
2023-03-12T08:19:28.830Z,84.64
2023-03-12T08:20:29.003Z,85.68
2023-03-12T08:21:28.809Z,86.83
2023-03-12T08:22:28.827Z,87.04
2023-03-12T08:23:28.845Z,86.20
2023-03-12T08:24:28.804Z,85.36
2023-03-12T08:25:28.774Z,85.05
2023-03-12T08:26:28.803Z,85.22
2023-03-12T08:27:28.727Z,85.22
2023-03-12T08:28:28.749Z,85.12
2023-03-12T08:29:28.767Z,84.28
2023-03-12T08:30:30.293Z,84.60
2023-03-12T08:31:28.781Z,84.14
2023-03-12T08:32:28.825Z,84.35
2023-03-12T08:33:28.652Z,84.45
2023-03-12T08:34:28.664Z,84.52
2023-03-12T08:35:28.780Z,83.90
2023-03-12T08:36:28.636Z,84.31
2023-03-12T08:37:28.634Z,84.42
2023-03-12T08:38:28.636Z,82.86
2023-03-12T08:39:28.570Z,83.69
2023-03-12T08:40:28.653Z,83.37
2023-03-12T08:41:28.600Z,83.06
2023-03-12T08:42:28.570Z,83.58
2023-03-12T08:43:29.469Z,83.17
2023-03-12T08:44:28.529Z,82.65
2023-03-12T08:45:28.666Z,83.58
2023-03-12T08:46:28.545Z,84.11
2023-03-12T08:47:28.493Z,84.00
2023-03-12T08:48:28.510Z,83.80
2023-03-12T08:49:28.442Z,83.06
2023-03-12T08:50:28.488Z,83.27
2023-03-12T08:51:28.447Z,83.75
2023-03-12T08:52:28.426Z,83.65
2023-03-12T08:53:28.579Z,83.44
2023-03-12T08:54:28.425Z,83.09
2023-03-12T08:55:28.387Z,82.05
2023-03-12T08:56:28.404Z,82.05
2023-03-12T08:57:28.379Z,81.53
2023-03-12T08:58:28.370Z,81.74
2023-03-12T08:59:28.475Z,81.81
2023-03-12T09:00:28.366Z,81.81
2023-03-12T09:01:28.278Z,81.18
2023-03-12T09:02:28.300Z,80.35
2023-03-12T09:03:28.345Z,80.35
2023-03-12T09:04:28.321Z,80.83
2023-03-12T09:05:28.297Z,81.46
2023-03-12T09:06:28.655Z,81.46
2023-03-12T09:07:28.203Z,80.11
2023-03-12T09:08:28.258Z,80.83
2023-03-12T09:09:28.197Z,81.04
2023-03-12T09:10:30.804Z,80.63
2023-03-12T09:11:28.219Z,80.21
2023-03-12T09:12:28.174Z,80.32
2023-03-12T09:13:45.312Z,79.94
2023-03-12T09:15:01.677Z,81.49
2023-03-12T09:15:29.108Z,81.18
2023-03-12T09:16:28.181Z,80.35
2023-03-12T09:17:28.219Z,81.18
2023-03-12T09:18:28.127Z,82.12
2023-03-12T09:19:28.045Z,81.46
2023-03-12T09:20:28.081Z,81.46
2023-03-12T09:21:28.045Z,81.32
2023-03-12T09:22:28.032Z,80.66
2023-03-12T09:23:28.060Z,78.34
2023-03-12T09:24:28.002Z,77.26
2023-03-12T09:25:27.996Z,76.64
2023-03-12T09:26:27.999Z,77.47
2023-03-12T09:27:27.984Z,76.64
2023-03-12T09:28:28.298Z,75.81
2023-03-12T09:29:27.941Z,76.23
2023-03-12T09:30:28.176Z,75.92
2023-03-12T09:31:27.941Z,76.02
2023-03-12T09:32:28.049Z,76.54
2023-03-12T09:33:27.878Z,77.44
2023-03-12T09:34:27.883Z,77.33
2023-03-12T09:35:27.950Z,75.98
2023-03-12T09:36:27.844Z,76.54
2023-03-12T09:37:27.839Z,76.64
2023-03-12T09:38:27.849Z,77.89
2023-03-12T09:39:27.803Z,78.92
2023-03-12T09:40:27.827Z,78.23
2023-03-12T09:41:27.790Z,78.96
2023-03-12T09:42:27.774Z,78.86
2023-03-12T09:43:27.756Z,79.20
2023-03-12T09:44:27.723Z,78.27
2023-03-12T09:45:27.718Z,78.89
2023-03-12T09:46:27.792Z,78.37
2023-03-12T09:47:27.794Z,77.85
2023-03-12T09:48:27.730Z,78.37
2023-03-12T09:49:27.643Z,77.64
2023-03-12T09:50:27.696Z,78.27
2023-03-12T09:51:27.638Z,77.40
2023-03-12T09:52:27.638Z,77.30
2023-03-12T09:53:27.650Z,77.20
2023-03-12T09:54:27.642Z,76.78
2023-03-12T09:55:27.546Z,77.61
2023-03-12T09:56:27.615Z,77.09
2023-03-12T09:57:27.538Z,77.72
2023-03-12T09:58:27.536Z,77.95
2023-03-12T09:59:27.699Z,77.95
2023-03-12T10:00:27.518Z,78.27
2023-03-12T10:01:27.512Z,78.78
2023-03-12T10:02:27.525Z,79.41
2023-03-12T10:03:27.488Z,79.93
2023-03-12T10:04:27.491Z,79.93
2023-03-12T10:05:27.563Z,80.04
2023-03-12T10:06:27.529Z,80.35
2023-03-12T10:07:27.411Z,80.97
2023-03-12T10:08:30.354Z,81.28
2023-03-12T10:09:27.390Z,81.70
2023-03-12T10:10:27.391Z,82.21
2023-03-12T10:11:27.509Z,82.53
2023-03-12T10:12:27.364Z,82.32
2023-03-12T10:13:27.350Z,82.53
2023-03-12T10:14:27.366Z,82.53
2023-03-12T10:15:27.324Z,83.25
2023-03-12T10:16:28.051Z,83.77
2023-03-12T10:17:27.324Z,84.08
2023-03-12T10:18:27.431Z,83.77
2023-03-12T10:19:27.271Z,84.60
2023-03-12T10:20:27.289Z,84.81
2023-03-12T10:21:27.235Z,85.16
2023-03-12T10:22:27.221Z,85.47
2023-03-12T10:23:27.340Z,86.55
2023-03-12T10:24:27.204Z,86.96
2023-03-12T10:25:27.197Z,87.48
2023-03-12T10:26:27.204Z,87.90
2023-03-12T10:27:27.140Z,88.21
2023-03-12T10:28:27.176Z,88.31
2023-03-12T10:29:27.159Z,88.21
2023-03-12T10:30:27.136Z,89.04
2023-03-12T10:31:27.193Z,89.25
2023-03-12T10:32:27.133Z,89.25
2023-03-12T10:33:27.094Z,89.67
2023-03-12T10:34:27.104Z,89.77
2023-03-12T10:35:27.072Z,89.56
2023-03-12T10:36:27.049Z,90.23
2023-03-12T10:37:27.033Z,90.64
2023-03-12T10:38:27.873Z,90.85
2023-03-12T10:39:26.977Z,90.75
2023-03-12T10:40:27.022Z,90.95
2023-03-12T10:41:27.048Z,91.16
2023-03-12T10:42:26.950Z,91.33
2023-03-12T10:43:26.946Z,91.43
2023-03-12T10:44:26.941Z,91.53
2023-03-12T10:45:26.921Z,90.91
2023-03-12T10:46:27.020Z,91.12
2023-03-12T10:47:26.965Z,91.53
2023-03-12T10:48:26.916Z,91.43
2023-03-12T10:49:26.837Z,91.85
2023-03-12T10:50:26.858Z,92.36
2023-03-12T10:51:26.836Z,92.78
2023-03-12T10:52:26.831Z,93.10
2023-03-12T10:53:29.625Z,93.62
2023-03-12T10:54:26.768Z,93.97
2023-03-12T10:55:26.818Z,94.38
2023-03-12T10:56:26.856Z,94.90
2023-03-12T10:57:26.786Z,95.73
2023-03-12T10:58:26.747Z,96.25
2023-03-12T10:59:26.773Z,96.47
2023-03-12T11:00:26.721Z,96.47
2023-03-12T11:01:26.737Z,96.51
2023-03-12T11:02:26.662Z,97.13
2023-03-12T11:03:26.708Z,97.65
2023-03-12T11:04:29.835Z,98.27
2023-03-12T11:05:26.712Z,98.59
2023-03-12T11:06:26.654Z,98.74
2023-03-12T11:07:26.625Z,98.94
2023-03-12T11:08:26.585Z,99.36
2023-03-12T11:09:26.620Z,99.63
2023-03-12T11:10:26.591Z,99.73
2023-03-12T11:11:26.627Z,99.99
2023-03-12T11:12:26.572Z,99.99
2023-03-12T11:13:26.549Z,99.99
2023-03-12T11:14:26.523Z,99.99
2023-03-12T11:15:26.548Z,99.99
2023-03-12T11:16:27.036Z,99.99
2023-03-12T11:17:26.644Z,99.99
2023-03-12T11:18:26.471Z,99.99
2023-03-12T11:19:26.463Z,99.99
2023-03-12T11:20:26.453Z,99.99
2023-03-12T11:21:26.433Z,99.99
2023-03-12T11:22:26.402Z,99.99
2023-03-12T11:23:26.562Z,99.99
2023-03-12T11:24:26.394Z,99.99
2023-03-12T11:25:26.390Z,99.99
2023-03-12T11:26:26.347Z,99.99
2023-03-12T11:27:26.383Z,99.99
2023-03-12T11:28:26.369Z,99.99
2023-03-12T11:29:26.495Z,99.99
2023-03-12T11:30:26.361Z,99.99
2023-03-12T11:31:26.336Z,99.99
2023-03-12T11:32:26.284Z,99.99
2023-03-12T11:33:26.277Z,99.99
2023-03-12T11:34:26.250Z,99.99
2023-03-12T11:35:26.418Z,99.99
2023-03-12T11:36:26.208Z,99.99
2023-03-12T11:37:26.271Z,99.99
2023-03-12T11:38:26.216Z,99.99
2023-03-12T11:39:26.190Z,99.99
2023-03-12T11:40:26.154Z,99.99
2023-03-12T11:41:26.228Z,99.99
2023-03-12T11:42:26.172Z,99.99
2023-03-12T11:43:41.675Z,99.99
2023-03-12T11:44:27.127Z,99.99
2023-03-12T11:45:26.125Z,99.99
2023-03-12T11:46:26.111Z,99.99
2023-03-12T11:47:26.194Z,99.99
2023-03-12T11:48:26.094Z,99.99
2023-03-12T11:49:26.090Z,99.99
2023-03-12T11:50:26.785Z,99.99
2023-03-12T11:51:26.028Z,99.99
2023-03-12T11:52:26.020Z,99.99
2023-03-12T11:53:26.135Z,99.99
2023-03-12T11:54:25.974Z,99.99
2023-03-12T11:55:26.743Z,99.99
2023-03-12T11:56:25.942Z,99.99
2023-03-12T11:57:25.972Z,99.99
2023-03-12T11:58:25.944Z,99.99
2023-03-12T11:59:25.982Z,99.99
2023-03-12T12:00:25.905Z,99.99
2023-03-12T12:01:25.899Z,99.99
2023-03-12T12:02:25.950Z,99.99
2023-03-12T12:03:25.959Z,99.99
2023-03-12T12:04:25.828Z,99.99
2023-03-12T12:05:25.954Z,99.99
2023-03-12T12:06:25.849Z,99.99
2023-03-12T12:07:25.835Z,99.99
2023-03-12T12:08:25.841Z,99.99
2023-03-12T12:09:25.798Z,99.99
2023-03-12T12:10:25.764Z,99.99
2023-03-12T12:11:25.942Z,99.99
2023-03-12T12:12:25.754Z,99.99
2023-03-12T12:13:25.739Z,99.99
2023-03-12T12:14:25.718Z,99.99
2023-03-12T12:15:25.743Z,99.99
2023-03-12T12:16:25.723Z,99.99
2023-03-12T12:17:25.827Z,99.99
2023-03-12T12:18:25.683Z,99.99
2023-03-12T12:19:25.670Z,99.99
2023-03-12T12:20:25.645Z,99.99
2023-03-12T12:21:25.640Z,99.99
2023-03-12T12:22:25.589Z,99.99
2023-03-12T12:23:25.749Z,99.99
2023-03-12T12:24:25.578Z,99.99
2023-03-12T12:25:25.609Z,99.99
2023-03-12T12:26:25.552Z,99.99
2023-03-12T12:27:25.564Z,99.99
2023-03-12T12:28:25.516Z,99.99
2023-03-12T12:29:25.584Z,99.99
2023-03-12T12:30:25.509Z,99.99
2023-03-12T12:31:25.511Z,99.99
2023-03-12T12:32:25.517Z,99.99
2023-03-12T12:33:25.464Z,99.99
2023-03-12T12:34:25.426Z,99.99
2023-03-12T12:35:25.515Z,99.99
2023-03-12T12:36:25.425Z,99.99
2023-03-12T12:37:25.460Z,99.99
2023-03-12T12:38:25.403Z,99.99
2023-03-12T12:39:25.399Z,99.99
2023-03-12T12:40:25.374Z,99.99
2023-03-12T12:41:25.386Z,99.99
2023-03-12T12:42:25.338Z,99.99
2023-03-12T12:43:25.369Z,99.99
2023-03-12T12:44:25.320Z,99.99
2023-03-12T12:45:25.318Z,99.99
2023-03-12T12:46:25.372Z,99.99
2023-03-12T12:47:25.335Z,99.99
2023-03-12T12:48:25.265Z,99.99
2023-03-12T12:49:25.318Z,99.99
2023-03-12T12:50:25.257Z,99.99
2023-03-12T12:51:25.241Z,99.99
2023-03-12T12:52:25.240Z,99.99
2023-03-12T12:53:25.242Z,99.99